Weather History for KW29 - June, 2014

Change the Weather History Date:

Monday, June 23, 2014

  Actual Average (KESN) Record (KESN)
Temperature  
Mean Temperature 72 °F -  
Max Temperature 80 °F 84 °F 95 °F (2015)
Min Temperature 64 °F 62 °F 51 °F (1972)
Cooling Degree Days 7    
Growing Degree Days 22 (Base 50)    
Moisture  
Dew Point 59 °F    
Average Humidity 63    
Maximum Humidity 94    
Minimum Humidity 41    
Precipitation  
Precipitation 0.00 in - - ()
Sea Level Pressure  
Sea Level Pressure 30.10 in    
Wind  
Wind Speed 6 mph (South)    
Max Wind Speed 13 mph    
Max Gust Speed 17 mph    
Visibility 10 miles    
Events      
Averages and records for this station are not official NWS values.
T = Trace of Precipitation, MM = Missing Value Source: NWS Daily Summary

Daily Weather History Graph

Daily Weather History Graph

Search for Another Location

Airport or City:

Trip Planner

Search our weather history database for the weather conditions in past years. The results will help you decide how hot, cold, wet, or windy it might be!

Date:

Astronomy

Jun. 23, 2014 Rise Set
Actual Time 5:40 AM EDT 8:34 PM EDT
Civil Twilight 5:08 AM EDT 9:06 PM EDT
Nautical Twilight 4:27 AM EDT 9:47 PM EDT
Astronomical Twilight 3:41 AM EDT 10:33 PM EDT
Moon 3:03 AM EDT (6/23) 5:14 PM EDT (6/23)
Length of Visible Light 15h 58m
Length of Day
14h 54m
Waning Crescent, 13% of the Moon is Illuminated
Jun 23
Waning Crescent
Jun 27
New
Jul 5
First Quarter
Jul 12
Full
Jul 18
Last Quarter

Hourly Weather History & Observations

Time (EDT) Temp. Heat Index Dew Point Humidity Pressure Visibility Wind Dir Wind Speed Gust Speed Precip Events Conditions
12:10 AM 69.8 °F - 60.8 °F 73% 30.03 in 10.0 mi SE 8.1 mph - N/A   Unknown
12:30 AM 69.8 °F - 62.6 °F 78% 30.03 in 10.0 mi SE 8.1 mph - N/A   Unknown
12:50 AM 69.8 °F - 62.6 °F 78% 30.03 in 10.0 mi SE 8.1 mph - N/A   Unknown
1:11 AM 69.8 °F - 62.6 °F 78% 30.03 in 10.0 mi SE 5.8 mph - N/A   Unknown
1:31 AM 68.0 °F - 64.4 °F 88% 30.03 in 10.0 mi SE 6.9 mph - N/A   Unknown
1:51 AM 68.0 °F - 64.4 °F 88% 30.03 in 10.0 mi SE 5.8 mph - N/A   Unknown
2:11 AM 68.0 °F - 64.4 °F 88% 30.04 in 10.0 mi SE 5.8 mph - N/A   Unknown
2:31 AM 68.0 °F - 62.6 °F 83% 30.04 in 10.0 mi SE 5.8 mph - N/A   Unknown
2:51 AM 68.0 °F - 64.4 °F 88% 30.04 in 10.0 mi Calm Calm - N/A   Unknown
3:11 AM 68.0 °F - 62.6 °F 83% 30.04 in 10.0 mi Calm Calm - N/A   Unknown
3:31 AM 64.4 °F - 62.6 °F 94% 30.04 in 10.0 mi Calm Calm - N/A   Unknown
3:51 AM 64.4 °F - 62.6 °F 94% 30.04 in 10.0 mi Calm Calm - N/A   Unknown
4:11 AM 66.2 °F - 62.6 °F 88% 30.04 in 10.0 mi Calm Calm - N/A   Unknown
4:31 AM 68.0 °F - 60.8 °F 78% 30.05 in 10.0 mi SSE 5.8 mph - N/A   Unknown
4:51 AM 68.0 °F - 60.8 °F 78% 30.05 in 10.0 mi SSE 3.5 mph - N/A   Unknown
5:11 AM 66.2 °F - 60.8 °F 83% 30.05 in 10.0 mi Calm Calm - N/A   Unknown
5:51 AM 64.4 °F - 60.8 °F 88% 30.07 in 10.0 mi Calm Calm - N/A   Unknown
6:11 AM 64.4 °F - 62.6 °F 94% 30.07 in 10.0 mi Calm Calm - N/A   Unknown
6:31 AM 68.0 °F - 62.6 °F 83% 30.08 in 10.0 mi Calm Calm - N/A   Unknown
6:51 AM 68.0 °F - 62.6 °F 83% 30.08 in 10.0 mi Calm Calm - N/A   Unknown
7:11 AM 69.8 °F - 62.6 °F 78% 30.09 in 10.0 mi SSE 3.5 mph - N/A   Unknown
7:31 AM 69.8 °F - 62.6 °F 78% 30.10 in 10.0 mi SSE 5.8 mph - N/A   Unknown
7:51 AM 69.8 °F - 62.6 °F 78% 30.11 in 10.0 mi South 5.8 mph - N/A   Unknown
8:11 AM 71.6 °F - 60.8 °F 69% 30.11 in 10.0 mi South 5.8 mph - N/A   Unknown
8:31 AM 71.6 °F - 59.0 °F 64% 30.12 in 10.0 mi South 6.9 mph - N/A   Unknown
8:51 AM 73.4 °F - 60.8 °F 65% 30.12 in 10.0 mi SE 8.1 mph - N/A   Unknown
9:11 AM 73.4 °F - 60.8 °F 65% 30.13 in 10.0 mi SSE 5.8 mph - N/A   Unknown
9:31 AM 73.4 °F - 53.6 °F 50% 30.13 in 10.0 mi SSE 9.2 mph - N/A   Unknown
9:52 AM 75.2 °F - 53.6 °F 47% 30.12 in 10.0 mi SE 10.4 mph - N/A   Unknown
10:12 AM 75.2 °F - 53.6 °F 47% 30.13 in 10.0 mi South 6.9 mph - N/A   Unknown
10:32 AM 77.0 °F - 53.6 °F 44% 30.14 in 10.0 mi SSE 9.2 mph - N/A   Unknown
10:52 AM 77.0 °F - 51.8 °F 41% 30.14 in 10.0 mi SSE 9.2 mph - N/A   Unknown
11:12 AM 77.0 °F - 51.8 °F 41% 30.14 in 10.0 mi SSE 10.4 mph - N/A   Unknown
11:32 AM 77.0 °F - 51.8 °F 41% 30.13 in 10.0 mi South 9.2 mph - N/A   Unknown
11:52 AM 77.0 °F - 51.8 °F 41% 30.14 in 10.0 mi SE 6.9 mph - N/A   Unknown
12:12 PM 77.0 °F - 53.6 °F 44% 30.14 in 10.0 mi SE 5.8 mph - N/A   Unknown
12:32 PM 78.8 °F - 53.6 °F 42% 30.14 in 10.0 mi SSE 6.9 mph - N/A   Unknown
12:52 PM 78.8 °F - 55.4 °F 44% 30.13 in 10.0 mi SSW 8.1 mph - N/A   Unknown
1:12 PM 78.8 °F - 53.6 °F 42% 30.13 in 10.0 mi SSW 6.9 mph - N/A   Unknown
1:32 PM 78.8 °F - 53.6 °F 42% 30.13 in 10.0 mi South 4.6 mph - N/A   Unknown
1:52 PM 78.8 °F - 60.8 °F 54% 30.13 in 10.0 mi WSW 8.1 mph - N/A   Unknown
2:12 PM 80.6 °F 81.5 °F 60.8 °F 51% 30.13 in 10.0 mi WSW 6.9 mph - N/A   Unknown
2:32 PM 80.6 °F 81.1 °F 59.0 °F 48% 30.12 in 10.0 mi SSE 4.6 mph - N/A   Unknown
3:12 PM 78.8 °F - 59.0 °F 51% 30.12 in 10.0 mi WSW 5.8 mph - N/A   Unknown
3:32 PM 78.8 °F - 55.4 °F 44% 30.12 in 10.0 mi SW 9.2 mph - N/A   Unknown
3:52 PM 80.6 °F 80.8 °F 57.2 °F 45% 30.13 in 10.0 mi SSW 8.1 mph - N/A   Unknown
4:12 PM 78.8 °F - 57.2 °F 47% 30.13 in 10.0 mi SW 12.7 mph - N/A   Unknown
4:32 PM 78.8 °F - 55.4 °F 44% 30.13 in 10.0 mi SSW 9.2 mph - N/A   Unknown
4:52 PM 78.8 °F - 57.2 °F 47% 30.12 in 10.0 mi SSW 9.2 mph - N/A   Unknown
5:12 PM 78.8 °F - 57.2 °F 47% 30.11 in 10.0 mi SSW 10.4 mph 17.3 mph N/A   Unknown
5:32 PM 78.8 °F - 59.0 °F 51% 30.11 in 10.0 mi SSW 9.2 mph - N/A   Unknown
6:32 PM 78.8 °F - 57.2 °F 47% 30.10 in 10.0 mi South 8.1 mph 17.3 mph N/A   Unknown
6:53 PM 77.0 °F - 57.2 °F 50% 30.10 in 10.0 mi South 10.4 mph - N/A   Unknown
7:13 PM 77.0 °F - 55.4 °F 47% 30.10 in 10.0 mi South 9.2 mph - N/A   Unknown
7:33 PM 77.0 °F - 57.2 °F 50% 30.10 in 10.0 mi South 9.2 mph - N/A   Unknown
7:53 PM 77.0 °F - 59.0 °F 54% 30.11 in 10.0 mi South 10.4 mph - N/A   Unknown
8:13 PM 73.4 °F - 59.0 °F 61% 30.11 in 10.0 mi South 8.1 mph - N/A   Unknown
8:33 PM 73.4 °F - 59.0 °F 61% 30.11 in 10.0 mi South 8.1 mph - N/A   Unknown
8:53 PM 73.4 °F - 59.0 °F 61% 30.11 in 10.0 mi South 8.1 mph - N/A   Unknown
9:13 PM 73.4 °F - 59.0 °F 61% 30.11 in 10.0 mi South 8.1 mph - N/A   Unknown
9:33 PM 73.4 °F - 59.0 °F 61% 30.13 in 10.0 mi South 9.2 mph - N/A   Unknown
9:53 PM 73.4 °F - 59.0 °F 61% 30.14 in 10.0 mi South 11.5 mph 16.1 mph N/A   Unknown
10:13 PM 73.4 °F - 59.0 °F 61% 30.15 in 10.0 mi South 8.1 mph - N/A   Unknown
10:33 PM 73.4 °F - 57.2 °F 57% 30.16 in 10.0 mi South 12.7 mph - N/A   Unknown
10:53 PM 71.6 °F - 59.0 °F 64% 30.16 in 10.0 mi SSE 10.4 mph - N/A   Unknown
11:13 PM 71.6 °F - 59.0 °F 64% 30.16 in 10.0 mi SSE 11.5 mph - N/A   Unknown
11:33 PM 71.6 °F - 57.2 °F 60% 30.15 in 10.0 mi SSE 9.2 mph - N/A   Unknown
11:53 PM 71.6 °F - 57.2 °F 60% 30.15 in 10.0 mi SSE 11.5 mph - N/A   Unknown